Time;durP1;ratioP1;P1;durP2;ratioP2;P2;SDS_P1;SDS_P2;PMS_P1;PMS_P2;Temp;Humidity;BMP_temperature;BMP_pressure;BME280_temperature;BME280_humidity;BME280_pressure;Samples;Min_cycle;Max_cycle;Signal;HPM_P1;HPM_P2
2023/09/27 00:01:56;;;;;;;4.45;1.80;;;15.70;99.90;;;;;;5024979;28;20033;-69
2023/09/27 00:04:21;;;;;;;4.95;2.58;;;15.70;99.90;;;;;;5018890;28;20038;-71
2023/09/27 00:06:47;;;;;;;4.25;2.45;;;15.70;99.90;;;;;;5010966;28;20109;-70
2023/09/27 00:09:12;;;;;;;5.50;2.60;;;15.70;99.90;;;;;;5011327;28;20485;-72
2023/09/27 00:11:38;;;;;;;4.75;2.55;;;15.70;99.90;;;;;;5020792;28;20485;-71
2023/09/27 00:14:04;;;;;;;5.68;2.42;;;15.70;99.90;;;;;;5016524;28;20044;-73
2023/09/27 00:16:29;;;;;;;4.97;2.60;;;15.70;99.90;;;;;;5019657;28;20029;-71
2023/09/27 00:18:55;;;;;;;6.60;3.03;;;15.70;99.90;;;;;;5011000;28;20116;-70
2023/09/27 00:21:21;;;;;;;7.15;2.80;;;15.70;99.90;;;;;;5007684;28;20033;-72
2023/09/27 00:23:46;;;;;;;5.40;2.80;;;15.70;99.90;;;;;;5023301;28;20045;-70
2023/09/27 00:26:12;;;;;;;4.82;2.78;;;15.70;99.90;;;;;;5026729;28;20068;-72
2023/09/27 00:28:37;;;;;;;5.90;3.17;;;15.70;99.90;;;;;;5016426;28;20494;-70
2023/09/27 00:31:04;;;;;;;8.10;3.30;;;15.70;99.90;;;;;;5018841;28;20052;-73
2023/09/27 00:33:30;;;;;;;9.52;3.30;;;15.70;99.90;;;;;;5015332;28;20507;-70
2023/09/27 00:35:55;;;;;;;6.97;3.00;;;15.70;99.90;;;;;;5016175;28;20132;-70
2023/09/27 00:38:21;;;;;;;5.60;2.78;;;15.70;99.90;;;;;;5009621;28;20118;-71
2023/09/27 00:40:50;;;;;;;5.03;3.17;;;15.70;99.90;;;;;;5023989;28;20121;-70
2023/09/27 00:43:30;;;;;;;4.65;2.67;;;15.70;99.90;;;;;;4985727;28;20387;-70
2023/09/27 00:46:04;;;;;;;6.47;2.75;;;15.70;99.90;;;;;;5013501;28;20029;-71
2023/09/27 00:48:31;;;;;;;6.05;2.92;;;15.70;99.90;;;;;;5013735;28;20410;-71
2023/09/27 00:50:57;;;;;;;5.35;2.72;;;15.60;99.90;;;;;;5011382;28;20041;-71
2023/09/27 00:53:25;;;;;;;6.40;2.80;;;15.60;99.90;;;;;;5007511;28;20036;-71
2023/09/27 00:55:51;;;;;;;5.15;2.92;;;15.60;99.90;;;;;;5004635;28;20510;-71
2023/09/27 00:58:19;;;;;;;5.55;2.70;;;15.60;99.90;;;;;;5009831;28;20029;-71
2023/09/27 01:00:48;;;;;;;5.32;2.42;;;15.50;99.90;;;;;;5011762;28;20030;-71
2023/09/27 01:03:14;;;;;;;6.53;3.13;;;15.50;99.90;;;;;;5006433;28;20038;-70
2023/09/27 01:05:44;;;;;;;6.18;3.80;;;15.50;99.90;;;;;;5005868;28;20045;-71
2023/09/27 01:08:10;;;;;;;4.50;2.72;;;15.50;99.90;;;;;;5012305;28;20033;-73
2023/09/27 01:10:36;;;;;;;6.05;2.88;;;15.50;99.90;;;;;;5014511;28;20030;-70
2023/09/27 01:13:03;;;;;;;9.80;3.05;;;15.50;99.90;;;;;;5012876;28;20398;-70
2023/09/27 01:15:28;;;;;;;5.88;3.08;;;15.50;99.90;;;;;;5010227;28;20041;-71
2023/09/27 01:17:55;;;;;;;5.97;3.10;;;15.40;99.90;;;;;;5010500;28;20505;-71
2023/09/27 01:20:21;;;;;;;5.25;2.88;;;15.40;99.90;;;;;;5016009;28;20083;-71
2023/09/27 01:23:05;;;;;;;5.78;2.75;;;15.30;99.90;;;;;;5023047;28;20025;-72
2023/09/27 01:25:36;;;;;;;8.82;3.97;;;15.30;99.90;;;;;;5008692;28;20056;-70
2023/09/27 01:28:04;;;;;;;11.90;3.95;;;15.20;99.90;;;;;;5013112;28;20034;-71
2023/09/27 01:30:33;;;;;;;5.65;2.97;;;15.20;99.90;;;;;;5010918;28;20124;-71
2023/09/27 01:33:07;;;;;;;4.50;2.67;;;15.10;99.90;;;;;;5026960;28;20025;-74
2023/09/27 01:35:34;;;;;;;11.02;3.42;;;15.10;99.90;;;;;;5018433;28;20091;-71
2023/09/27 01:38:00;;;;;;;6.68;3.65;;;15.00;99.90;;;;;;5029650;28;20037;-72
2023/09/27 01:40:27;;;;;;;5.95;3.53;;;15.00;99.90;;;;;;5010967;28;20049;-70
2023/09/27 01:42:53;;;;;;;6.10;3.25;;;15.00;99.90;;;;;;5017003;28;20040;-70
2023/09/27 01:45:18;;;;;;;7.18;3.33;;;15.00;99.90;;;;;;5010091;28;20234;-70
2023/09/27 01:47:44;;;;;;;6.45;3.40;;;14.90;99.90;;;;;;5026565;28;20512;-71
2023/09/27 01:50:10;;;;;;;5.43;3.15;;;14.90;99.90;;;;;;5025067;28;20046;-70
2023/09/27 01:52:35;;;;;;;6.82;3.53;;;14.80;99.90;;;;;;5019420;28;20038;-70
2023/09/27 01:55:03;;;;;;;7.43;3.40;;;14.80;99.90;;;;;;5010314;28;20030;-71
2023/09/27 01:57:28;;;;;;;6.15;3.90;;;14.80;99.90;;;;;;5023236;28;20033;-72
2023/09/27 01:59:54;;;;;;;6.55;3.67;;;14.80;99.90;;;;;;5008006;28;20046;-71
2023/09/27 02:02:19;;;;;;;11.70;3.95;;;14.80;99.90;;;;;;5017369;28;20038;-71
2023/09/27 02:04:45;;;;;;;6.22;3.20;;;14.80;99.90;;;;;;5018928;28;20130;-70
2023/09/27 02:07:11;;;;;;;4.75;2.90;;;14.70;99.90;;;;;;5013600;28;20456;-70
2023/09/27 02:09:36;;;;;;;7.28;3.67;;;14.70;99.90;;;;;;5016211;28;20128;-70
2023/09/27 02:12:02;;;;;;;7.55;3.63;;;14.70;99.90;;;;;;5018398;28;20508;-72
2023/09/27 02:14:28;;;;;;;6.60;3.70;;;14.70;99.90;;;;;;5011065;28;20417;-69
2023/09/27 02:16:53;;;;;;;7.13;4.03;;;14.70;99.90;;;;;;5010088;28;20034;-70
2023/09/27 02:19:19;;;;;;;6.75;3.90;;;14.60;99.90;;;;;;5025528;28;20129;-70
2023/09/27 02:21:44;;;;;;;5.22;3.17;;;14.60;99.90;;;;;;5018637;28;20516;-71
2023/09/27 02:24:10;;;;;;;8.23;3.88;;;14.60;99.90;;;;;;5010330;28;20042;-72
2023/09/27 02:26:36;;;;;;;6.65;3.42;;;14.60;99.90;;;;;;5021650;28;20037;-70
2023/09/27 02:29:02;;;;;;;6.57;3.67;;;14.50;99.90;;;;;;5014238;28;20119;-71
2023/09/27 02:31:27;;;;;;;5.97;3.50;;;14.50;99.90;;;;;;5006882;28;20455;-71
2023/09/27 02:33:53;;;;;;;5.53;3.55;;;14.50;99.90;;;;;;5005418;28;20049;-71
2023/09/27 02:36:18;;;;;;;7.43;4.07;;;14.40;99.90;;;;;;5016420;28;20048;-70
2023/09/27 02:38:44;;;;;;;6.68;3.78;;;14.40;99.90;;;;;;5011618;28;20061;-71
2023/09/27 02:41:09;;;;;;;7.25;3.90;;;14.40;99.90;;;;;;5004418;28;20076;-72
2023/09/27 02:43:35;;;;;;;7.43;3.70;;;14.40;99.90;;;;;;5005747;28;20124;-71
2023/09/27 02:46:01;;;;;;;6.28;3.95;;;14.30;99.90;;;;;;5001963;28;20499;-71
2023/09/27 02:48:26;;;;;;;9.32;4.20;;;14.30;99.90;;;;;;5010370;28;20494;-71
2023/09/27 02:50:52;;;;;;;6.13;3.83;;;14.30;99.90;;;;;;4999058;28;20034;-70
2023/09/27 02:53:18;;;;;;;7.40;4.20;;;14.30;99.90;;;;;;5000483;28;20058;-70
2023/09/27 02:55:44;;;;;;;8.50;4.03;;;14.30;99.90;;;;;;4999126;28;20042;-71
2023/09/27 02:58:10;;;;;;;8.50;4.18;;;14.30;99.90;;;;;;5002765;28;20077;-70
2023/09/27 03:00:36;;;;;;;6.78;3.70;;;14.30;99.90;;;;;;4999966;28;20033;-70
2023/09/27 03:03:03;;;;;;;6.47;4.10;;;14.30;99.90;;;;;;4996415;28;20035;-72
2023/09/27 03:05:30;;;;;;;6.90;4.13;;;14.30;99.90;;;;;;5014584;28;20125;-72
2023/09/27 03:07:58;;;;;;;6.93;4.13;;;14.20;99.90;;;;;;4996625;28;20023;-70
2023/09/27 03:10:24;;;;;;;8.60;3.55;;;14.30;99.90;;;;;;5004190;28;20035;-70
2023/09/27 03:12:49;;;;;;;8.73;3.80;;;14.30;99.90;;;;;;4998511;28;20034;-72
2023/09/27 03:15:15;;;;;;;9.13;3.50;;;14.20;99.90;;;;;;5001544;28;20080;-70
2023/09/27 03:17:42;;;;;;;7.47;3.97;;;14.30;99.90;;;;;;4998015;28;20187;-71
2023/09/27 03:20:17;;;;;;;5.50;3.22;;;14.20;99.90;;;;;;4997303;28;20046;-71
2023/09/27 03:22:43;;;;;;;7.15;3.47;;;14.10;99.90;;;;;;5008637;28;20559;-71
2023/09/27 03:25:09;;;;;;;7.45;3.63;;;14.10;99.90;;;;;;5005672;28;20033;-75
2023/09/27 03:27:36;;;;;;;10.02;4.45;;;14.10;99.90;;;;;;5006038;28;20490;-71
2023/09/27 03:30:03;;;;;;;7.25;3.40;;;14.00;99.90;;;;;;5005222;28;20057;-71
2023/09/27 03:32:29;;;;;;;6.03;2.92;;;14.00;99.90;;;;;;5006397;28;20041;-71
2023/09/27 03:34:54;;;;;;;7.03;4.13;;;14.00;99.90;;;;;;5007963;28;20088;-70
2023/09/27 03:37:20;;;;;;;7.90;4.45;;;14.00;99.90;;;;;;5006231;28;20039;-73
2023/09/27 03:39:46;;;;;;;11.40;3.85;;;14.00;99.90;;;;;;5005993;28;20124;-70
2023/09/27 03:42:12;;;;;;;7.68;4.53;;;14.00;99.90;;;;;;5006252;28;20062;-71
2023/09/27 03:44:38;;;;;;;9.98;4.35;;;14.00;99.90;;;;;;5007184;28;20049;-70
2023/09/27 03:47:04;;;;;;;7.22;4.05;;;14.00;99.90;;;;;;5005044;28;20041;-71
2023/09/27 03:49:29;;;;;;;7.35;4.10;;;14.00;99.90;;;;;;5005683;28;20920;-71
2023/09/27 03:51:55;;;;;;;10.43;4.70;;;14.00;99.90;;;;;;5005736;28;20496;-72
2023/09/27 03:54:20;;;;;;;8.15;4.55;;;14.00;99.90;;;;;;5005194;28;20505;-70
2023/09/27 03:56:47;;;;;;;5.65;4.03;;;14.00;99.90;;;;;;5005547;28;20061;-71
2023/09/27 03:59:13;;;;;;;7.47;3.97;;;14.00;99.90;;;;;;5005854;28;20492;-71
2023/09/27 04:01:39;;;;;;;6.85;4.00;;;14.00;99.90;;;;;;5009327;28;20490;-70
2023/09/27 04:04:05;;;;;;;9.32;4.80;;;14.00;99.90;;;;;;5003388;28;20141;-69
2023/09/27 04:06:31;;;;;;;8.70;4.78;;;14.00;99.90;;;;;;5008688;28;20120;-71
2023/09/27 04:08:56;;;;;;;7.60;4.40;;;14.00;99.90;;;;;;5006057;28;20026;-70
2023/09/27 04:11:22;;;;;;;6.75;4.65;;;14.00;99.90;;;;;;5008021;28;20041;-70
2023/09/27 04:13:48;;;;;;;10.80;4.63;;;14.00;99.90;;;;;;5005784;28;20042;-70
2023/09/27 04:16:14;;;;;;;7.38;4.53;;;14.00;99.90;;;;;;5005413;28;20477;-70
2023/09/27 04:18:39;;;;;;;6.35;4.00;;;14.00;99.90;;;;;;5007518;28;20121;-71
2023/09/27 04:21:07;;;;;;;8.05;4.63;;;14.00;99.90;;;;;;5006607;28;20544;-72
2023/09/27 04:23:33;;;;;;;7.32;4.47;;;13.90;99.90;;;;;;5004858;28;20034;-72
2023/09/27 04:25:59;;;;;;;9.75;5.65;;;13.90;99.90;;;;;;5009314;28;20045;-72
2023/09/27 04:28:25;;;;;;;11.10;5.35;;;14.00;99.90;;;;;;5003188;28;20064;-71
2023/09/27 04:30:51;;;;;;;10.55;5.07;;;14.00;99.90;;;;;;5005180;28;20049;-71
2023/09/27 04:33:18;;;;;;;12.02;5.28;;;14.00;99.90;;;;;;5002469;28;20130;-72
2023/09/27 04:35:43;;;;;;;10.70;5.55;;;14.00;99.90;;;;;;5004923;28;20129;-71
2023/09/27 04:38:10;;;;;;;11.98;5.55;;;14.10;99.90;;;;;;5005792;28;20125;-74
2023/09/27 04:40:36;;;;;;;12.23;5.57;;;14.10;99.90;;;;;;5004611;28;20046;-71
2023/09/27 04:43:01;;;;;;;9.68;5.70;;;14.10;99.90;;;;;;5003371;28;20456;-71
2023/09/27 04:45:27;;;;;;;7.65;4.18;;;14.10;99.90;;;;;;5001929;28;20030;-71
2023/09/27 04:47:52;;;;;;;9.65;4.82;;;14.10;99.90;;;;;;5004779;28;20026;-71
2023/09/27 04:50:18;;;;;;;9.90;5.60;;;14.10;99.90;;;;;;5000433;28;20774;-72
2023/09/27 04:52:44;;;;;;;8.70;5.28;;;14.10;99.90;;;;;;5004708;28;20121;-71
2023/09/27 04:55:10;;;;;;;11.55;6.05;;;14.10;99.90;;;;;;5002570;28;20018;-72
2023/09/27 04:57:36;;;;;;;8.60;5.22;;;14.10;99.90;;;;;;5014390;28;20766;-71
2023/09/27 05:00:03;;;;;;;10.18;4.93;;;14.10;99.90;;;;;;5004705;28;20105;-71
2023/09/27 05:02:29;;;;;;;9.20;5.55;;;14.10;99.90;;;;;;5002727;28;20042;-70
2023/09/27 05:04:55;;;;;;;11.02;4.85;;;14.10;99.90;;;;;;5010016;28;20038;-72
2023/09/27 05:07:21;;;;;;;9.07;5.15;;;14.10;99.90;;;;;;5005180;28;20049;-71
2023/09/27 05:09:47;;;;;;;9.05;5.40;;;14.10;99.90;;;;;;5007795;28;20064;-70
2023/09/27 05:12:13;;;;;;;15.40;5.07;;;14.10;99.90;;;;;;5008716;28;20038;-72
2023/09/27 05:14:39;;;;;;;9.20;4.63;;;14.10;99.90;;;;;;5001563;28;20041;-71
2023/09/27 05:17:05;;;;;;;8.57;4.95;;;14.10;99.90;;;;;;5001114;28;20500;-70
2023/09/27 05:19:31;;;;;;;7.55;5.13;;;14.00;99.90;;;;;;5005192;28;20120;-70
2023/09/27 05:21:56;;;;;;;11.68;5.55;;;13.90;99.90;;;;;;5008917;28;20084;-70
2023/09/27 05:24:22;;;;;;;11.57;5.00;;;13.90;99.90;;;;;;5007703;28;20490;-71
2023/09/27 05:26:47;;;;;;;10.88;6.18;;;13.90;99.90;;;;;;5005003;28;20036;-71
2023/09/27 05:29:13;;;;;;;9.68;5.53;;;13.90;99.90;;;;;;5000472;28;20035;-70
2023/09/27 05:31:43;;;;;;;8.63;5.45;;;13.90;99.90;;;;;;5001597;28;20398;-70
2023/09/27 05:34:09;;;;;;;9.93;4.88;;;13.90;99.90;;;;;;5003737;28;20030;-71
2023/09/27 05:36:35;;;;;;;8.18;4.68;;;13.90;99.90;;;;;;5004834;28;20041;-69
2023/09/27 05:39:07;;;;;;;8.27;5.18;;;13.90;99.90;;;;;;4999275;28;20048;-73
2023/09/27 05:41:33;;;;;;;13.35;5.40;;;13.90;99.90;;;;;;5000806;28;20026;-71
2023/09/27 05:43:58;;;;;;;13.38;5.97;;;14.00;99.90;;;;;;4999340;28;20030;-71
2023/09/27 05:46:26;;;;;;;12.85;5.22;;;14.00;99.90;;;;;;4997922;28;20089;-71
2023/09/27 05:48:51;;;;;;;9.57;5.90;;;14.00;99.90;;;;;;5004553;28;20530;-70
2023/09/27 05:51:17;;;;;;;9.35;5.43;;;14.00;99.90;;;;;;4998456;28;20038;-70
2023/09/27 05:53:43;;;;;;;12.40;5.88;;;14.10;99.90;;;;;;5005512;28;20101;-71
2023/09/27 05:56:08;;;;;;;15.35;7.03;;;14.10;99.90;;;;;;5004790;28;20048;-70
2023/09/27 05:58:35;;;;;;;12.50;6.20;;;14.20;99.90;;;;;;5005583;28;20037;-70
2023/09/27 06:01:02;;;;;;;11.23;6.13;;;14.30;99.90;;;;;;5004404;28;20037;-71
2023/09/27 06:03:31;;;;;;;15.32;7.22;;;14.30;99.90;;;;;;5007789;28;20064;-70
2023/09/27 06:05:58;;;;;;;9.98;6.22;;;14.30;99.90;;;;;;5004494;28;20034;-71
2023/09/27 06:08:24;;;;;;;11.98;6.57;;;14.40;99.90;;;;;;5000259;28;20028;-69
2023/09/27 06:10:50;;;;;;;15.13;6.47;;;14.40;99.90;;;;;;5002930;28;20117;-71
2023/09/27 06:13:15;;;;;;;14.80;5.93;;;14.40;99.90;;;;;;5003287;28;20579;-70
2023/09/27 06:15:41;;;;;;;9.27;5.95;;;14.40;99.90;;;;;;5006626;28;20538;-70
2023/09/27 06:18:07;;;;;;;15.77;7.55;;;14.40;99.90;;;;;;5004365;28;20037;-72
2023/09/27 06:20:33;;;;;;;11.43;5.88;;;14.50;99.90;;;;;;5004595;28;20038;-70
2023/09/27 06:23:03;;;;;;;16.52;6.72;;;14.50;99.90;;;;;;5000709;28;20033;-70
2023/09/27 06:25:30;;;;;;;11.82;5.82;;;14.50;99.90;;;;;;5004383;28;20034;-72
2023/09/27 06:27:57;;;;;;;11.45;6.20;;;14.50;99.90;;;;;;5012276;28;20049;-72
2023/09/27 06:30:23;;;;;;;11.60;5.60;;;14.60;99.90;;;;;;5001195;28;20098;-70
2023/09/27 06:32:49;;;;;;;14.68;6.55;;;14.60;99.90;;;;;;5003240;28;20037;-70
2023/09/27 06:35:15;;;;;;;14.00;6.20;;;14.70;99.90;;;;;;4998810;28;20030;-70
2023/09/27 06:37:43;;;;;;;10.48;6.00;;;14.70;99.90;;;;;;5002954;28;20048;-71
2023/09/27 06:40:13;;;;;;;15.60;6.50;;;14.80;99.90;;;;;;4999804;28;20031;-70
2023/09/27 06:42:39;;;;;;;11.63;5.88;;;14.80;99.90;;;;;;5004426;28;20524;-70
2023/09/27 06:45:06;;;;;;;9.20;5.78;;;14.90;99.90;;;;;;5003880;28;20062;-71
2023/09/27 06:47:35;;;;;;;12.70;6.13;;;14.90;99.90;;;;;;4999469;28;20398;-70
2023/09/27 06:50:02;;;;;;;12.50;5.70;;;14.90;99.90;;;;;;5000417;28;20091;-72
2023/09/27 06:52:29;;;;;;;10.27;6.18;;;15.00;99.90;;;;;;4998550;28;20031;-71
2023/09/27 06:54:55;;;;;;;11.80;5.78;;;15.00;99.90;;;;;;5001020;28;20057;-70
2023/09/27 06:57:20;;;;;;;12.68;5.82;;;15.00;99.90;;;;;;4998201;28;20794;-72
2023/09/27 06:59:46;;;;;;;11.75;6.13;;;15.10;99.90;;;;;;5005713;28;20534;-70
2023/09/27 07:02:11;;;;;;;10.48;6.10;;;15.10;99.90;;;;;;4995981;28;20399;-70
2023/09/27 07:04:38;;;;;;;10.30;5.65;;;15.20;99.90;;;;;;5005459;28;20426;-71
2023/09/27 07:07:04;;;;;;;7.70;5.20;;;15.20;99.90;;;;;;4997632;28;20062;-70
2023/09/27 07:09:33;;;;;;;8.93;5.32;;;15.20;99.90;;;;;;5000992;28;20066;-70
2023/09/27 07:11:58;;;;;;;9.63;5.60;;;15.30;99.90;;;;;;5015186;28;20037;-71
2023/09/27 07:14:24;;;;;;;14.38;6.00;;;15.40;99.90;;;;;;5000833;28;20118;-70
2023/09/27 07:16:50;;;;;;;16.00;6.93;;;15.50;99.90;;;;;;5009045;28;20033;-70
2023/09/27 07:19:17;;;;;;;13.80;5.75;;;15.50;99.90;;;;;;5006581;28;20041;-69
2023/09/27 07:21:43;;;;;;;13.60;5.88;;;15.60;99.90;;;;;;5021208;28;20485;-70
2023/09/27 07:24:13;;;;;;;11.07;5.82;;;15.70;99.90;;;;;;5004020;28;20581;-70
2023/09/27 07:26:41;;;;;;;12.85;5.80;;;15.90;99.90;;;;;;5005333;28;20037;-71
2023/09/27 07:29:07;;;;;;;20.58;5.72;;;15.90;99.90;;;;;;5003258;28;20053;-69
2023/09/27 07:31:33;;;;;;;11.93;6.00;;;16.10;99.90;;;;;;5013095;28;20034;-71
2023/09/27 07:33:59;;;;;;;14.85;6.05;;;16.10;99.90;;;;;;5009667;28;20037;-70
2023/09/27 07:36:24;;;;;;;12.70;5.75;;;16.20;99.90;;;;;;5004522;28;20124;-70
2023/09/27 07:38:58;;;;;;;12.00;5.57;;;16.30;99.90;;;;;;5005434;28;20049;-71
2023/09/27 07:41:24;;;;;;;13.48;5.40;;;16.30;99.90;;;;;;5006314;28;20466;-70
2023/09/27 07:43:50;;;;;;;12.93;5.85;;;16.30;99.90;;;;;;5009497;28;20146;-71
2023/09/27 07:46:17;;;;;;;13.48;6.25;;;16.30;99.90;;;;;;5004949;28;20494;-70
2023/09/27 07:48:43;;;;;;;14.48;6.35;;;16.30;99.90;;;;;;5007047;28;20045;-71
2023/09/27 07:51:18;;;;;;;9.15;5.50;;;16.40;99.90;;;;;;5005362;28;20108;-71
2023/09/27 07:53:45;;;;;;;15.75;6.10;;;16.40;99.90;;;;;;5003738;28;20034;-71
2023/09/27 07:56:19;;;;;;;19.70;6.63;;;16.50;99.90;;;;;;5005025;28;20696;-74
2023/09/27 07:58:46;;;;;;;15.55;6.55;;;16.60;99.90;;;;;;5001284;28;20553;-70
2023/09/27 08:01:12;;;;;;;15.35;6.53;;;16.70;99.90;;;;;;5004352;28;20768;-70
2023/09/27 08:03:38;;;;;;;9.93;5.75;;;16.90;99.90;;;;;;5002731;28;20038;-70
2023/09/27 08:06:04;;;;;;;12.80;6.10;;;17.00;99.90;;;;;;5002450;28;20448;-70
2023/09/27 08:08:30;;;;;;;10.98;6.10;;;17.20;99.90;;;;;;5000621;28;20042;-70
2023/09/27 08:10:57;;;;;;;11.13;5.80;;;17.30;99.90;;;;;;5004614;28;20061;-71
2023/09/27 08:13:25;;;;;;;10.48;5.47;;;17.30;99.90;;;;;;5001740;28;20494;-71
2023/09/27 08:15:51;;;;;;;12.30;5.47;;;17.40;99.90;;;;;;5012764;28;20129;-71
2023/09/27 08:18:17;;;;;;;12.77;5.28;;;17.40;99.90;;;;;;5018188;28;20141;-71
2023/09/27 08:20:42;;;;;;;10.20;5.72;;;17.50;99.90;;;;;;5008977;28;20114;-71
2023/09/27 08:23:08;;;;;;;13.27;6.00;;;17.70;99.90;;;;;;5006658;28;20476;-72
2023/09/27 08:25:33;;;;;;;10.40;5.53;;;17.80;99.90;;;;;;5004196;28;20041;-71
2023/09/27 08:28:01;;;;;;;10.57;5.95;;;18.00;99.90;;;;;;5015266;28;20505;-71
2023/09/27 08:30:27;;;;;;;8.32;4.80;;;18.00;99.90;;;;;;5004736;28;20117;-71
2023/09/27 08:32:52;;;;;;;12.35;6.03;;;18.10;99.90;;;;;;5005630;28;20033;-71
2023/09/27 08:35:18;;;;;;;13.15;5.07;;;18.10;99.90;;;;;;5006038;28;20084;-71
2023/09/27 08:37:44;;;;;;;7.82;4.60;;;18.20;99.90;;;;;;5004257;28;20030;-70
2023/09/27 08:40:13;;;;;;;11.10;5.50;;;18.10;99.90;;;;;;5007107;28;20044;-70
2023/09/27 08:42:40;;;;;;;9.55;4.88;;;18.10;99.90;;;;;;5004652;28;20038;-70
2023/09/27 08:45:12;;;;;;;12.20;5.03;;;18.10;99.90;;;;;;5005311;28;20040;-70
2023/09/27 08:47:41;;;;;;;16.40;5.95;;;18.20;99.90;;;;;;5008122;28;20449;-70
2023/09/27 08:50:07;;;;;;;10.63;5.03;;;18.20;99.90;;;;;;5000145;28;20469;-69
2023/09/27 08:52:33;;;;;;;13.38;5.30;;;18.30;99.90;;;;;;5001472;28;20109;-69
2023/09/27 08:54:59;;;;;;;15.10;5.50;;;18.30;99.90;;;;;;5001824;28;20124;-71
2023/09/27 08:57:26;;;;;;;11.98;5.15;;;18.40;99.90;;;;;;5004473;28;20034;-71
2023/09/27 08:59:52;;;;;;;13.77;5.45;;;18.50;99.90;;;;;;5005530;28;20562;-71
2023/09/27 09:02:20;;;;;;;13.75;5.05;;;18.50;99.90;;;;;;5001478;28;20122;-70
2023/09/27 09:04:46;;;;;;;7.97;4.60;;;18.50;99.90;;;;;;5010984;28;20033;-71
2023/09/27 09:07:11;;;;;;;10.27;4.82;;;18.50;99.90;;;;;;5011186;28;20044;-73
2023/09/27 09:09:39;;;;;;;11.90;4.63;;;18.40;99.90;;;;;;5006073;28;20065;-71
2023/09/27 09:12:09;;;;;;;13.05;4.97;;;18.30;99.90;;;;;;5003761;28;20042;-71
2023/09/27 09:14:43;;;;;;;11.27;5.07;;;18.30;99.90;;;;;;5008329;28;20110;-70
2023/09/27 09:17:10;;;;;;;10.93;5.03;;;18.30;99.90;;;;;;5008952;28;20034;-71
2023/09/27 09:19:38;;;;;;;11.07;5.22;;;18.30;99.90;;;;;;5004013;28;20141;-71
2023/09/27 09:22:08;;;;;;;11.57;5.07;;;18.30;99.90;;;;;;5001631;28;20045;-70
2023/09/27 09:24:41;;;;;;;12.18;4.55;;;18.30;99.90;;;;;;5007239;28;20042;-71
2023/09/27 09:27:13;;;;;;;8.35;4.53;;;18.30;99.90;;;;;;5006722;28;20034;-70
2023/09/27 09:29:54;;;;;;;14.38;4.97;;;18.40;99.90;;;;;;5020328;28;20042;-70
2023/09/27 09:32:25;;;;;;;8.70;4.25;;;18.40;99.90;;;;;;5014788;28;20034;-70
2023/09/27 09:34:52;;;;;;;13.50;5.25;;;18.50;99.90;;;;;;5018049;28;20037;-72
2023/09/27 09:37:22;;;;;;;7.82;5.05;;;18.50;99.90;;;;;;5017216;28;20037;-72
2023/09/27 09:39:52;;;;;;;9.35;4.72;;;18.50;99.90;;;;;;5013151;28;20041;-71
2023/09/27 09:42:33;;;;;;;8.27;4.50;;;18.50;99.90;;;;;;5009004;28;20060;-72
2023/09/27 09:45:06;;;;;;;7.70;4.60;;;18.60;99.90;;;;;;5008162;28;20505;-71
2023/09/27 09:47:35;;;;;;;14.82;4.97;;;18.60;99.90;;;;;;5020707;28;20604;-71
2023/09/27 09:50:16;;;;;;;7.57;3.85;;;18.70;99.90;;;;;;5019630;28;20037;-71
2023/09/27 09:52:57;;;;;;;10.25;4.35;;;18.70;99.90;;;;;;5012880;28;20485;-71
2023/09/27 09:55:24;;;;;;;7.32;4.32;;;18.80;99.90;;;;;;5012153;28;20537;-71
2023/09/27 09:57:56;;;;;;;9.02;3.95;;;18.80;99.90;;;;;;5015349;28;20432;-71
2023/09/27 10:00:27;;;;;;;7.47;3.67;;;18.80;99.90;;;;;;5016321;28;20034;-70
2023/09/27 10:02:56;;;;;;;8.48;4.65;;;18.80;99.90;;;;;;5009222;28;20037;-70
2023/09/27 10:05:22;;;;;;;10.88;4.78;;;18.80;99.90;;;;;;5011894;28;20046;-70
2023/09/27 10:07:50;;;;;;;6.80;4.28;;;18.90;99.90;;;;;;5015913;28;20033;-71
2023/09/27 10:10:19;;;;;;;11.73;5.80;;;18.90;99.90;;;;;;5006093;28;20038;-71
2023/09/27 10:12:52;;;;;;;12.75;5.22;;;18.90;99.90;;;;;;5027441;28;20095;-70
2023/09/27 10:15:20;;;;;;;11.55;5.30;;;19.00;99.90;;;;;;5009736;28;20067;-70
2023/09/27 10:17:46;;;;;;;8.55;4.95;;;19.10;99.90;;;;;;5019646;28;20041;-70
2023/09/27 10:20:22;;;;;;;10.32;5.10;;;19.30;99.90;;;;;;5019668;28;20034;-71
2023/09/27 10:22:49;;;;;;;9.60;4.30;;;19.50;99.90;;;;;;5007849;28;20130;-70
2023/09/27 10:25:23;;;;;;;11.23;4.68;;;19.70;99.90;;;;;;5005359;28;20064;-70
2023/09/27 10:28:01;;;;;;;10.68;4.18;;;19.80;99.90;;;;;;5012897;28;20058;-70
2023/09/27 10:30:48;;;;;;;10.55;4.97;;;20.00;99.90;;;;;;5021642;28;20061;-70
2023/09/27 10:33:17;;;;;;;13.30;5.32;;;20.10;99.90;;;;;;4995300;28;20042;-70
2023/09/27 10:36:06;;;;;;;10.02;5.38;;;20.10;99.90;;;;;;5024572;28;20141;-70
2023/09/27 10:38:46;;;;;;;12.53;5.87;;;20.00;99.90;;;;;;4996741;28;20430;-70
2023/09/27 10:41:48;;;;;;;10.50;4.55;;;19.90;99.90;;;;;;4997501;28;20380;-71
2023/09/27 10:44:30;;;;;;;16.42;4.72;;;19.90;99.90;;;;;;4905160;29;20035;-70
2023/09/27 10:46:57;;;;;;;8.65;4.68;;;19.90;99.90;;;;;;4991538;28;20036;-70
2023/09/27 10:49:25;;;;;;;16.23;5.78;;;19.90;99.90;;;;;;4994966;28;20065;-70
2023/09/27 10:51:54;;;;;;;10.00;5.05;;;19.90;99.90;;;;;;5005981;28;20088;-69
2023/09/27 10:54:24;;;;;;;20.23;5.80;;;20.00;99.90;;;;;;5005683;28;20402;-70
2023/09/27 10:56:55;;;;;;;9.05;5.13;;;20.00;99.90;;;;;;5006557;28;20124;-71
2023/09/27 10:59:28;;;;;;;12.63;5.22;;;20.10;99.90;;;;;;5005334;28;20064;-70
2023/09/27 11:01:58;;;;;;;10.48;4.88;;;20.20;99.90;;;;;;5007806;28;20091;-69
2023/09/27 11:04:24;;;;;;;9.17;5.47;;;20.50;99.90;;;;;;5015174;28;20066;-70
2023/09/27 11:06:50;;;;;;;9.88;4.40;;;20.60;99.90;;;;;;5008709;28;20449;-69
2023/09/27 11:09:19;;;;;;;9.82;4.18;;;20.80;99.90;;;;;;5008578;28;20235;-70
2023/09/27 11:11:47;;;;;;;8.18;4.18;;;21.00;99.90;;;;;;5006103;28;20053;-70
2023/09/27 11:14:32;;;;;;;6.47;3.90;;;21.10;99.90;;;;;;5017144;28;20036;-69
2023/09/27 11:17:16;;;;;;;7.32;3.30;;;21.10;99.90;;;;;;5008588;28;20037;-69
2023/09/27 11:19:42;;;;;;;12.18;3.47;;;21.20;99.90;;;;;;5007384;28;20034;-68
2023/09/27 11:22:08;;;;;;;13.88;3.63;;;21.30;99.90;;;;;;5005557;28;20045;-69
2023/09/27 11:24:40;;;;;;;5.47;2.90;;;21.40;99.90;;;;;;5013137;28;20100;-71
2023/09/27 11:27:09;;;;;;;5.72;2.92;;;21.50;99.90;;;;;;5004395;28;20041;-69
2023/09/27 11:29:35;;;;;;;7.75;2.83;;;21.60;99.90;;;;;;5002804;28;20045;-69
2023/09/27 11:32:02;;;;;;;8.65;2.90;;;21.60;99.90;;;;;;4999343;28;20044;-69
2023/09/27 11:34:27;;;;;;;5.20;2.72;;;21.60;99.90;;;;;;5002087;28;20117;-70
2023/09/27 11:36:55;;;;;;;6.30;2.70;;;21.50;99.90;;;;;;5008307;28;20594;-69
2023/09/27 11:39:29;;;;;;;6.15;2.90;;;21.50;99.90;;;;;;5000792;28;20045;-69
2023/09/27 11:41:59;;;;;;;5.72;2.55;;;21.40;99.90;;;;;;5007886;28;20394;-69
2023/09/27 11:44:26;;;;;;;5.30;3.03;;;21.30;99.90;;;;;;5009757;28;20038;-71
2023/09/27 11:47:04;;;;;;;8.43;2.78;;;21.30;99.90;;;;;;5006868;28;20042;-71
2023/09/27 11:49:30;;;;;;;8.23;2.72;;;21.30;99.90;;;;;;5009098;28;20445;-72
2023/09/27 11:51:56;;;;;;;4.78;1.90;;;21.30;99.90;;;;;;5005143;28;20034;-69
2023/09/27 11:54:22;;;;;;;5.50;2.15;;;21.30;99.90;;;;;;5005475;28;20544;-69
2023/09/27 11:56:47;;;;;;;3.35;1.50;;;21.20;99.90;;;;;;5007992;28;20065;-69
2023/09/27 11:59:13;;;;;;;5.45;2.03;;;21.20;99.90;;;;;;5005934;28;20026;-70
2023/09/27 12:01:39;;;;;;;6.22;1.83;;;21.20;99.90;;;;;;5008968;28;20509;-69
2023/09/27 12:04:05;;;;;;;2.92;1.67;;;21.20;99.90;;;;;;5002830;28;20034;-70
2023/09/27 12:06:32;;;;;;;5.78;1.55;;;21.20;99.90;;;;;;5005468;28;20456;-69
2023/09/27 12:08:58;;;;;;;4.13;1.80;;;21.20;99.90;;;;;;5005273;28;20028;-69
2023/09/27 12:11:24;;;;;;;4.97;1.52;;;21.20;99.90;;;;;;5000128;28;20034;-69
2023/09/27 12:13:51;;;;;;;3.10;1.63;;;21.20;99.90;;;;;;5010412;28;20030;-70
2023/09/27 12:16:18;;;;;;;3.75;1.80;;;21.10;99.90;;;;;;5004194;28;20037;-69
2023/09/27 12:18:44;;;;;;;3.45;1.63;;;21.20;99.90;;;;;;5001656;28;20038;-69
2023/09/27 12:21:10;;;;;;;3.60;1.95;;;21.20;99.90;;;;;;5004106;28;20038;-69
2023/09/27 12:23:35;;;;;;;6.13;2.38;;;21.20;99.90;;;;;;4999900;28;20142;-70
2023/09/27 12:26:01;;;;;;;3.38;1.88;;;21.20;99.90;;;;;;5000425;28;20026;-68
2023/09/27 12:28:26;;;;;;;5.13;2.20;;;21.30;99.90;;;;;;5004113;28;20049;-69
2023/09/27 12:30:52;;;;;;;4.40;1.73;;;21.30;99.90;;;;;;5002703;28;20121;-69
2023/09/27 12:33:17;;;;;;;5.47;1.55;;;21.30;99.90;;;;;;4999852;28;20034;-71
2023/09/27 12:35:44;;;;;;;3.13;1.77;;;21.40;99.90;;;;;;5003651;28;20059;-69
2023/09/27 12:38:10;;;;;;;5.35;1.88;;;21.40;99.90;;;;;;5000719;28;20053;-69
2023/09/27 12:40:36;;;;;;;4.47;1.88;;;21.40;99.90;;;;;;4999937;28;20501;-69
2023/09/27 12:43:04;;;;;;;3.65;1.70;;;21.40;99.90;;;;;;5002321;28;20446;-68
2023/09/27 12:45:30;;;;;;;3.20;1.55;;;21.50;99.90;;;;;;5007352;28;20128;-70